Time;durP1;ratioP1;P1;durP2;ratioP2;P2;SDS_P1;SDS_P2;PMS_P1;PMS_P2;Temp;Humidity;BMP_temperature;BMP_pressure;BME280_temperature;BME280_humidity;BME280_pressure;Samples;Min_cycle;Max_cycle;Signal;HPM_P1;HPM_P2
2022/07/22 00:01:26;;;;;;;10.13;9.43;;;18.50;99.90;;;19.12;85.90;98291.06;5238214;28;20216;-59
2022/07/22 00:04:01;;;;;;;10.18;9.30;;;18.40;99.90;;;19.16;85.80;98290.28;5240086;28;20200;-58
2022/07/22 00:06:35;;;;;;;10.13;9.32;;;18.40;99.90;;;19.13;85.31;98295.38;5231748;28;20203;-57
2022/07/22 00:09:08;;;;;;;10.32;9.52;;;18.40;99.90;;;19.12;85.83;98294.50;5235897;28;20201;-58
2022/07/22 00:11:41;;;;;;;9.65;8.82;;;18.40;99.90;;;19.15;85.72;98298.03;5233733;28;20656;-56
2022/07/22 00:14:14;;;;;;;9.80;9.05;;;18.40;99.90;;;19.17;86.31;98298.94;5232445;28;20650;-58
2022/07/22 00:16:47;;;;;;;10.55;9.45;;;18.40;99.90;;;19.15;85.84;98288.56;5234811;28;20273;-59
2022/07/22 00:19:24;;;;;;;10.02;9.30;;;18.40;99.90;;;19.12;86.08;98293.63;5239083;28;20257;-57
2022/07/22 00:21:57;;;;;;;9.80;9.07;;;18.40;99.90;;;19.12;85.62;98283.28;5235190;28;20251;-58
2022/07/22 00:24:30;;;;;;;8.98;8.38;;;18.40;99.90;;;19.13;85.60;98282.44;5228984;28;20224;-58
2022/07/22 00:27:03;;;;;;;10.68;9.88;;;18.40;99.90;;;19.06;84.95;98289.16;5233466;28;20224;-58
2022/07/22 00:29:36;;;;;;;9.45;8.52;;;18.30;99.90;;;19.03;84.27;98282.97;5228797;28;20205;-59
2022/07/22 00:32:09;;;;;;;10.43;9.63;;;18.20;99.90;;;18.96;84.79;98286.22;5238734;28;20330;-58
2022/07/22 00:34:44;;;;;;;10.05;9.25;;;18.20;99.90;;;18.89;84.80;98274.81;5232210;28;20680;-59
2022/07/22 00:37:17;;;;;;;9.85;9.13;;;18.10;99.90;;;18.87;85.26;98287.69;5240913;28;20238;-59
2022/07/22 00:39:50;;;;;;;11.55;10.48;;;18.10;99.90;;;18.84;86.60;98281.53;5235352;28;21735;-59
2022/07/22 00:42:23;;;;;;;9.70;9.00;;;18.10;99.90;;;18.85;86.06;98278.97;5239616;28;20591;-59
2022/07/22 00:44:57;;;;;;;10.02;9.27;;;18.10;99.90;;;18.78;86.58;98279.66;5229611;28;20205;-59
2022/07/22 00:47:33;;;;;;;10.05;9.25;;;18.10;99.90;;;18.75;85.91;98276.97;5238727;28;20644;-59
2022/07/22 00:50:08;;;;;;;10.90;9.93;;;18.00;99.90;;;18.52;86.22;98270.13;5234670;28;20717;-59
2022/07/22 00:52:44;;;;;;;10.40;9.60;;;17.80;99.90;;;18.55;88.49;98283.19;5232818;28;20631;-59
2022/07/22 00:55:18;;;;;;;11.40;10.40;;;17.80;99.90;;;18.54;88.70;98279.72;5240611;28;20192;-59
2022/07/22 00:57:51;;;;;;;10.77;9.95;;;17.80;99.90;;;18.53;89.37;98275.34;5230022;28;20227;-59
2022/07/22 01:00:24;;;;;;;11.05;10.25;;;17.80;99.90;;;18.56;89.64;98278.03;5235006;28;20314;-58
2022/07/22 01:02:57;;;;;;;10.43;9.73;;;17.90;99.90;;;18.50;88.39;98271.78;5233407;28;20274;-59
2022/07/22 01:05:32;;;;;;;10.60;9.70;;;17.80;99.90;;;18.51;88.30;98271.81;5232708;28;20615;-59
2022/07/22 01:08:07;;;;;;;10.35;9.45;;;17.80;99.90;;;18.55;88.49;98275.41;5236873;28;20227;-59
2022/07/22 01:10:40;;;;;;;10.70;9.80;;;17.80;99.90;;;18.51;88.45;98270.94;5236805;28;20232;-59
2022/07/22 01:13:13;;;;;;;11.00;10.05;;;17.70;99.90;;;18.48;89.67;98260.50;5248218;28;20204;-58
2022/07/22 01:15:47;;;;;;;10.70;9.80;;;17.80;99.90;;;18.44;88.00;98265.56;5238262;28;20249;-56
2022/07/22 01:18:20;;;;;;;10.52;9.63;;;17.70;99.90;;;18.39;88.47;98264.53;5229268;28;20656;-58
2022/07/22 01:20:55;;;;;;;10.02;9.15;;;17.70;99.90;;;18.33;89.34;98259.16;5238447;28;20271;-56
2022/07/22 01:23:28;;;;;;;10.77;9.98;;;17.60;99.90;;;18.34;90.25;98263.53;5233453;28;20228;-58
2022/07/22 01:26:02;;;;;;;10.57;9.80;;;17.70;99.90;;;18.33;88.88;98260.88;5235819;28;20247;-58
2022/07/22 01:28:35;;;;;;;9.98;9.27;;;17.70;99.90;;;18.38;88.95;98267.09;5242343;28;20197;-58
2022/07/22 01:31:09;;;;;;;10.88;9.80;;;17.70;99.90;;;18.40;89.39;98268.03;5240323;28;20224;-54
2022/07/22 01:33:43;;;;;;;9.93;9.23;;;17.70;99.90;;;18.32;88.92;98270.38;5236733;28;20560;-55
2022/07/22 01:36:17;;;;;;;10.90;10.00;;;17.60;99.90;;;18.31;87.93;98266.00;5234514;28;20204;-57
2022/07/22 01:38:51;;;;;;;9.85;9.10;;;17.50;99.90;;;18.31;87.78;98268.59;5237401;28;20298;-58
2022/07/22 01:41:24;;;;;;;9.52;8.68;;;17.60;99.90;;;18.31;88.33;98271.16;5235170;28;20221;-56
2022/07/22 01:43:57;;;;;;;10.27;9.48;;;17.60;99.90;;;18.31;88.19;98268.59;5233840;28;20225;-54
2022/07/22 01:46:31;;;;;;;10.27;9.48;;;17.60;99.90;;;18.34;88.47;98270.41;5233734;28;20237;-56
2022/07/22 01:49:04;;;;;;;10.65;9.68;;;17.60;99.90;;;18.30;89.25;98271.13;5238768;28;20229;-55
2022/07/22 01:51:39;;;;;;;10.68;9.77;;;17.60;99.90;;;18.27;88.28;98268.44;5236807;28;20240;-57
2022/07/22 01:54:12;;;;;;;10.30;9.40;;;17.60;99.90;;;18.28;88.36;98268.47;5234821;28;20232;-56
2022/07/22 01:56:45;;;;;;;10.93;10.10;;;17.50;99.90;;;18.24;88.33;98266.63;5241329;28;20236;-55
2022/07/22 01:59:19;;;;;;;10.88;9.77;;;17.50;99.90;;;18.24;87.57;98266.63;5243075;28;20584;-57
2022/07/22 02:01:52;;;;;;;10.60;9.63;;;17.50;99.90;;;18.26;89.34;98265.00;5230117;28;20224;-59
2022/07/22 02:04:25;;;;;;;10.80;9.80;;;17.50;99.90;;;18.18;88.32;98264.72;5236171;28;20672;-56
2022/07/22 02:07:00;;;;;;;10.75;9.90;;;17.40;99.90;;;18.10;87.91;98268.75;5240584;28;20204;-58
2022/07/22 02:09:33;;;;;;;10.80;9.95;;;17.30;99.90;;;18.01;90.32;98277.06;5239623;28;20220;-58
2022/07/22 02:12:08;;;;;;;10.85;9.88;;;17.30;99.90;;;18.00;89.55;98269.28;5232723;28;20249;-58
2022/07/22 02:14:41;;;;;;;11.30;10.30;;;17.30;99.90;;;17.98;89.50;98269.22;5239157;28;20785;-59
2022/07/22 02:17:14;;;;;;;10.85;9.93;;;17.30;99.90;;;17.94;89.57;98262.19;5230896;28;20223;-59
2022/07/22 02:19:47;;;;;;;11.52;10.50;;;17.20;99.90;;;17.87;88.88;98267.97;5239991;28;20227;-58
2022/07/22 02:22:22;;;;;;;10.95;10.15;;;17.10;99.90;;;17.82;89.61;98268.63;5236212;28;20255;-58
2022/07/22 02:24:55;;;;;;;10.93;9.85;;;17.10;99.90;;;17.86;89.80;98261.03;5231234;28;20291;-59
2022/07/22 02:27:28;;;;;;;11.85;10.95;;;17.10;99.90;;;17.86;89.98;98257.59;5237892;28;20225;-59
2022/07/22 02:30:01;;;;;;;10.25;9.35;;;17.20;99.90;;;17.83;89.17;98258.34;5232954;28;20220;-59
2022/07/22 02:32:35;;;;;;;10.75;9.85;;;17.10;99.90;;;17.81;91.26;98256.53;5236851;28;20243;-59
2022/07/22 02:35:09;;;;;;;11.27;10.38;;;17.20;99.90;;;17.86;91.91;98252.41;5238998;28;20382;-57
2022/07/22 02:37:43;;;;;;;11.07;10.18;;;17.20;99.90;;;17.87;90.64;98252.44;5229956;28;20228;-57
2022/07/22 02:40:19;;;;;;;10.82;9.90;;;17.20;99.90;;;17.85;90.48;98250.63;5236501;28;20275;-58
2022/07/22 02:42:52;;;;;;;11.15;10.35;;;17.10;99.90;;;17.83;90.30;98250.59;5237264;28;20225;-58
2022/07/22 02:45:25;;;;;;;11.77;10.70;;;17.10;99.90;;;17.68;89.12;98250.00;5235962;28;20205;-57
2022/07/22 02:47:59;;;;;;;10.98;10.18;;;16.90;99.90;;;17.63;89.76;98244.69;5233136;28;20209;-57
2022/07/22 02:50:33;;;;;;;12.02;10.90;;;16.90;99.90;;;17.52;91.31;98244.28;5232288;28;20255;-57
2022/07/22 02:53:07;;;;;;;10.63;9.82;;;16.80;99.90;;;17.44;90.30;98242.25;5240529;28;20337;-59
2022/07/22 02:55:40;;;;;;;11.48;10.50;;;16.70;99.90;;;17.39;92.27;98252.41;5231291;28;20239;-57
2022/07/22 02:58:13;;;;;;;10.80;9.90;;;16.70;99.90;;;17.40;91.92;98248.13;5236668;28;20239;-55
2022/07/22 03:00:47;;;;;;;11.55;10.52;;;16.70;99.90;;;17.31;91.21;98254.75;5233673;28;20259;-57
2022/07/22 03:03:20;;;;;;;11.52;10.70;;;16.70;99.90;;;17.30;90.86;98259.84;5233981;28;20207;-57
2022/07/22 03:05:53;;;;;;;11.05;10.25;;;16.60;99.90;;;17.36;92.06;98264.34;5237718;28;20880;-57
2022/07/22 03:08:28;;;;;;;11.40;10.35;;;16.70;99.90;;;17.30;90.82;98265.00;5237064;28;20240;-59
2022/07/22 03:11:01;;;;;;;11.20;10.30;;;16.60;99.90;;;17.33;92.43;98266.00;5231845;28;20212;-57
2022/07/22 03:13:34;;;;;;;12.43;11.23;;;16.70;99.90;;;17.40;92.48;98261.06;5230195;28;20239;-57
2022/07/22 03:16:07;;;;;;;11.65;10.60;;;16.70;99.90;;;17.31;91.44;98264.19;5238013;28;20235;-57
2022/07/22 03:18:41;;;;;;;11.40;10.50;;;16.60;99.90;;;17.26;93.29;98263.16;5239569;28;20683;-58
2022/07/22 03:21:14;;;;;;;11.50;10.63;;;16.60;99.90;;;17.23;93.51;98257.88;5230730;28;20283;-58
2022/07/22 03:23:53;;;;;;;11.88;10.88;;;16.60;99.90;;;17.26;93.90;98257.97;5231632;28;20208;-59
2022/07/22 03:26:26;;;;;;;11.35;10.50;;;16.70;99.90;;;17.23;92.93;98257.88;5233455;28;20228;-57
2022/07/22 03:28:59;;;;;;;11.35;10.45;;;16.60;99.90;;;17.26;93.48;98256.28;5235928;28;20584;-57
2022/07/22 03:31:33;;;;;;;10.90;10.07;;;16.70;99.90;;;17.26;91.06;98252.81;5240812;28;20224;-57
2022/07/22 03:34:06;;;;;;;10.75;9.95;;;16.60;99.90;;;17.22;92.11;98256.09;5233740;28;20564;-57
2022/07/22 03:36:39;;;;;;;11.75;10.65;;;16.60;99.90;;;17.23;92.36;98263.03;5232495;28;20657;-57
2022/07/22 03:39:13;;;;;;;10.77;9.93;;;16.60;99.90;;;17.28;90.88;98261.47;5233333;28;20197;-59
2022/07/22 03:41:47;;;;;;;11.98;10.98;;;16.60;99.90;;;17.33;91.30;98257.38;5234225;28;20255;-58
2022/07/22 03:44:20;;;;;;;11.82;10.82;;;16.60;99.90;;;17.23;90.89;98257.88;5234437;28;20197;-58
2022/07/22 03:46:53;;;;;;;11.95;10.95;;;16.60;99.90;;;17.19;90.93;98262.03;5239570;28;20283;-58
2022/07/22 03:49:27;;;;;;;11.43;10.50;;;16.50;99.90;;;17.25;90.73;98259.66;5239821;28;20205;-59
2022/07/22 03:52:00;;;;;;;11.07;10.07;;;16.50;99.90;;;17.28;92.80;98266.66;5235181;28;20255;-58
2022/07/22 03:54:35;;;;;;;11.82;10.82;;;16.60;99.90;;;17.32;92.41;98264.25;5238504;28;20220;-59
2022/07/22 03:57:08;;;;;;;11.48;10.40;;;16.70;99.90;;;17.31;92.07;98269.34;5233847;28;20688;-58
2022/07/22 03:59:41;;;;;;;12.35;11.23;;;16.60;99.90;;;17.33;90.87;98275.47;5234794;28;20197;-57
2022/07/22 04:02:15;;;;;;;11.65;10.75;;;16.60;99.90;;;17.24;90.89;98272.53;5231153;28;20294;-56
2022/07/22 04:04:48;;;;;;;11.70;10.82;;;16.50;99.90;;;17.29;91.33;98274.47;5225516;28;20715;-57
2022/07/22 04:07:21;;;;;;;11.10;10.13;;;16.50;99.90;;;17.30;91.74;98275.34;5230279;28;20233;-57
2022/07/22 04:10:04;;;;;;;11.32;10.32;;;16.60;99.90;;;17.32;91.00;98273.72;5230237;28;20223;-59
2022/07/22 04:12:40;;;;;;;11.88;10.88;;;16.60;99.90;;;17.38;92.13;98281.69;5231912;28;20651;-57
2022/07/22 04:15:13;;;;;;;11.27;10.27;;;16.70;99.90;;;17.39;91.59;98275.69;5230645;28;20254;-59
2022/07/22 04:17:46;;;;;;;11.95;11.05;;;16.70;99.90;;;17.32;91.32;98272.00;5232114;28;21761;-58
2022/07/22 04:20:19;;;;;;;11.48;10.57;;;16.70;99.90;;;17.29;90.35;98276.19;5232644;28;20276;-56
2022/07/22 04:22:53;;;;;;;12.25;11.25;;;16.50;99.90;;;17.29;92.92;98278.75;5228725;28;20244;-52
2022/07/22 04:25:27;;;;;;;12.85;11.70;;;16.60;99.90;;;17.37;92.70;98272.19;5228696;28;20727;-53
2022/07/22 04:28:00;;;;;;;11.90;10.98;;;16.70;99.90;;;17.40;91.81;98272.28;5231017;28;20291;-55
2022/07/22 04:30:33;;;;;;;11.02;10.02;;;16.70;99.90;;;17.43;91.25;98267.22;5235170;28;20257;-53
2022/07/22 04:33:06;;;;;;;10.82;10.02;;;16.80;99.90;;;17.46;89.46;98267.34;5236321;28;20220;-53
2022/07/22 04:35:40;;;;;;;11.27;10.38;;;16.70;99.90;;;17.44;89.27;98266.41;5232264;28;20915;-55
2022/07/22 04:38:13;;;;;;;11.05;10.25;;;16.70;99.90;;;17.52;90.93;98272.72;5235115;28;20285;-54
2022/07/22 04:40:47;;;;;;;12.15;11.18;;;16.80;99.90;;;17.55;91.38;98262.50;5236014;28;20243;-57
2022/07/22 04:43:26;;;;;;;11.40;10.50;;;16.90;99.90;;;17.63;90.14;98259.31;5231450;28;20282;-54
2022/07/22 04:46:00;;;;;;;12.15;11.15;;;17.00;99.90;;;17.58;91.75;98261.72;5231725;28;20628;-56
2022/07/22 04:48:33;;;;;;;12.65;11.63;;;17.00;99.90;;;17.60;89.65;98266.94;5238902;28;20199;-53
2022/07/22 04:51:06;;;;;;;11.93;10.95;;;17.00;99.90;;;17.71;90.33;98252.69;5241310;28;20247;-53
2022/07/22 04:53:39;;;;;;;11.57;10.70;;;17.10;99.90;;;17.78;88.42;98255.59;5239021;28;20683;-53
2022/07/22 04:56:21;;;;;;;12.00;11.05;;;17.00;99.90;;;17.84;90.15;98254.06;5235673;28;20207;-54
2022/07/22 04:58:54;;;;;;;11.25;10.45;;;17.10;99.90;;;17.78;88.84;98254.72;5238947;28;20232;-55
2022/07/22 05:01:27;;;;;;;12.57;11.63;;;17.10;99.90;;;17.80;89.58;98250.50;5240006;28;20230;-55
2022/07/22 05:04:01;;;;;;;12.80;11.80;;;17.10;99.90;;;17.98;90.21;98247.66;5232049;28;20216;-52
2022/07/22 05:06:34;;;;;;;12.23;11.27;;;17.30;99.90;;;18.10;88.17;98253.22;5235042;28;21032;-54
2022/07/22 05:09:07;;;;;;;11.70;10.82;;;17.40;99.90;;;18.26;87.86;98244.28;5230734;28;20280;-52
2022/07/22 05:11:41;;;;;;;11.95;10.85;;;17.50;99.90;;;18.43;86.15;98247.44;5229388;28;20686;-56
2022/07/22 05:14:14;;;;;;;11.75;10.60;;;17.60;99.90;;;18.64;85.27;98247.22;5234029;28;20202;-54
2022/07/22 05:16:47;;;;;;;11.65;10.75;;;17.70;99.90;;;18.72;84.92;98250.94;5237728;28;20200;-55
2022/07/22 05:19:21;;;;;;;11.40;10.60;;;17.80;99.90;;;18.90;86.10;98258.41;5235914;28;20204;-57
2022/07/22 05:21:54;;;;;;;10.52;9.80;;;18.10;99.90;;;19.16;83.01;98247.97;5232468;28;20648;-57
2022/07/22 05:24:27;;;;;;;11.55;10.65;;;18.30;99.90;;;19.45;80.69;98252.25;5231789;28;20296;-54
2022/07/22 05:27:01;;;;;;;11.23;10.32;;;18.50;99.90;;;19.98;78.99;98252.00;5232123;28;20701;-53
2022/07/22 05:29:35;;;;;;;11.25;10.35;;;19.00;99.90;;;20.59;76.76;98247.50;5238148;28;20237;-53
2022/07/22 05:32:08;;;;;;;11.65;10.73;;;19.50;99.90;;;21.05;73.72;98241.63;5235918;28;20260;-53
2022/07/22 05:34:41;;;;;;;10.70;9.80;;;20.20;99.90;;;21.75;72.10;98250.03;5235799;28;20890;-54
2022/07/22 05:37:15;;;;;;;10.50;9.48;;;20.60;99.90;;;22.23;69.44;98241.38;5234476;28;20229;-56
2022/07/22 05:39:48;;;;;;;10.55;9.75;;;21.10;99.90;;;22.44;67.72;98238.25;5231072;28;20201;-57
2022/07/22 05:42:23;;;;;;;10.90;9.90;;;21.30;99.90;;;22.92;65.84;98244.16;5230019;28;20751;-56
2022/07/22 05:44:56;;;;;;;11.15;10.15;;;21.60;99.90;;;22.65;nan;98245.50;5237299;28;20200;-58
2022/07/22 05:47:29;;;;;;;11.25;10.25;;;21.60;99.90;;;23.04;64.95;98248.72;5233744;28;20736;-53
2022/07/22 05:50:03;;;;;;;11.32;10.30;;;21.70;99.90;;;23.34;64.21;98236.06;5236228;28;20201;-56
2022/07/22 05:52:38;;;;;;;11.35;10.43;;;21.90;99.90;;;23.65;62.79;98236.44;5238062;28;20252;-57
2022/07/22 05:55:11;;;;;;;11.23;10.32;;;22.20;99.90;;;23.80;62.98;98240.97;5237356;28;20285;-56
2022/07/22 05:57:45;;;;;;;11.40;10.48;;;22.50;99.90;;;24.23;61.11;98238.78;5235096;28;20221;-56
2022/07/22 06:00:19;;;;;;;11.27;10.30;;;22.60;99.90;;;24.48;59.97;98238.16;5235775;28;20676;-57
2022/07/22 06:02:52;;;;;;;11.30;10.30;;;22.70;99.90;;;24.80;59.63;98240.13;5238140;28;20225;-55
2022/07/22 06:05:25;;;;;;;11.27;10.38;;;22.90;99.90;;;24.82;58.92;98240.16;5244726;28;20235;-53
2022/07/22 06:08:09;;;;;;;10.52;9.73;;;23.10;99.90;;;25.34;57.41;98235.22;5240023;28;20542;-57
2022/07/22 06:10:42;;;;;;;11.50;10.50;;;23.40;99.90;;;25.41;55.83;98237.03;5231674;28;20680;-55
2022/07/22 06:13:17;;;;;;;10.88;10.00;;;23.40;99.90;;;25.58;55.61;98235.34;5232074;28;20254;-56
2022/07/22 06:15:50;;;;;;;11.10;10.20;;;23.50;99.90;;;25.80;55.54;98231.00;5235771;28;20283;-59
2022/07/22 06:18:23;;;;;;;10.68;9.88;;;23.70;99.90;;;26.31;54.58;98231.13;5231700;28;20272;-59
2022/07/22 06:20:56;;;;;;;11.52;10.50;;;24.20;99.90;;;26.12;54.47;98234.59;5230902;28;20278;-59
2022/07/22 06:23:29;;;;;;;10.55;9.73;;;24.30;99.90;;;26.62;52.08;98229.41;5229423;28;20304;-59
2022/07/22 06:26:02;;;;;;;11.50;10.60;;;24.50;99.90;;;26.63;51.96;98233.75;5229884;28;20247;-59
2022/07/22 06:28:37;;;;;;;10.90;10.00;;;24.30;99.90;;;26.84;51.45;98227.63;5235242;28;20257;-58
2022/07/22 06:31:10;;;;;;;10.38;9.57;;;24.50;99.90;;;27.16;51.20;98237.19;5234660;28;20254;-60
2022/07/22 06:33:43;;;;;;;10.57;9.68;;;24.80;99.80;;;27.63;50.08;98242.25;5228837;28;20463;-60
2022/07/22 06:36:17;;;;;;;10.88;9.98;;;25.30;98.80;;;27.71;48.81;98231.69;5228723;28;20200;-58
2022/07/22 06:38:51;;;;;;;10.57;9.77;;;25.40;98.00;;;28.07;47.87;98229.75;5228065;28;20717;-59
2022/07/22 06:41:24;;;;;;;11.40;10.50;;;25.50;97.90;;;28.07;48.06;98229.75;5229843;28;20683;-57
2022/07/22 06:43:59;;;;;;;11.93;10.73;;;25.40;97.60;;;28.08;48.00;98226.25;5229282;28;20208;-59
2022/07/22 06:46:32;;;;;;;10.35;9.50;;;25.40;98.10;;;28.67;47.76;98227.56;5236479;28;20611;-59
2022/07/22 06:49:06;;;;;;;11.05;10.15;;;25.90;97.70;;;28.87;47.02;98226.47;5229733;28;20250;-60
2022/07/22 06:51:43;;;;;;;10.70;9.90;;;26.30;96.80;;;28.85;46.46;98228.25;5230437;28;20243;-58
2022/07/22 06:54:16;;;;;;;10.07;9.27;;;26.50;96.20;;;29.19;46.07;98231.44;5240459;28;20741;-60
2022/07/22 06:56:49;;;;;;;10.40;9.52;;;26.60;95.80;;;28.77;47.58;98223.06;5231183;28;20236;-59
2022/07/22 06:59:23;;;;;;;10.80;9.93;;;26.80;95.80;;;29.17;44.64;98228.81;5229646;28;20291;-59
2022/07/22 07:01:56;;;;;;;10.23;9.52;;;26.90;94.60;;;29.60;45.06;98228.28;5232893;28;20226;-59
2022/07/22 07:04:30;;;;;;;10.63;9.82;;;27.30;94.60;;;29.80;44.03;98224.53;5235395;28;20200;-59
2022/07/22 07:07:03;;;;;;;10.48;9.68;;;27.70;93.60;;;30.05;43.49;98220.63;5232711;28;20661;-60
2022/07/22 07:09:36;;;;;;;9.60;8.80;;;27.70;93.50;;;30.33;43.05;98220.22;5237201;28;20659;-60
2022/07/22 07:12:09;;;;;;;9.65;8.95;;;28.10;93.00;;;30.41;43.18;98220.97;5230046;28;20240;-60
2022/07/22 07:14:44;;;;;;;10.40;9.52;;;28.30;93.00;;;30.60;41.83;98223.31;5228260;28;20278;-60
2022/07/22 07:17:37;;;;;;;10.35;9.55;;;28.30;92.00;;;30.44;41.82;98218.28;5229318;28;20200;-60
2022/07/22 07:20:12;;;;;;;9.90;9.20;;;28.20;91.40;;;30.73;42.12;98216.88;5232385;28;20231;-60
2022/07/22 07:22:45;;;;;;;10.43;9.52;;;28.30;92.10;;;30.85;41.48;98218.47;5234175;28;20302;-60
2022/07/22 07:25:18;;;;;;;10.32;9.52;;;28.50;91.80;;;30.67;41.53;98215.22;5233949;28;20205;-61
2022/07/22 07:27:55;;;;;;;9.55;8.80;;;28.60;91.10;;;30.95;41.67;98213.00;5229365;28;20199;-60
2022/07/22 07:30:31;;;;;;;10.38;9.45;;;28.70;91.60;;;30.75;41.77;98215.97;5227702;28;20264;-59
2022/07/22 07:33:04;;;;;;;10.68;9.85;;;28.70;91.30;;;30.93;41.36;98206.91;5233638;28;20844;-60
2022/07/22 07:35:37;;;;;;;9.43;8.60;;;28.60;90.90;;;31.05;41.54;98207.53;5230283;28;20231;-60
2022/07/22 07:38:10;;;;;;;10.50;9.68;;;28.80;91.30;;;30.94;41.33;98194.56;5232921;28;20675;-60
2022/07/22 07:40:43;;;;;;;10.35;9.55;;;28.70;91.00;;;31.16;41.02;98194.97;5230394;28;20241;-60
2022/07/22 07:43:17;;;;;;;9.50;8.80;;;28.80;91.00;;;31.16;42.08;98193.22;5235028;28;20722;-60
2022/07/22 07:45:51;;;;;;;10.07;9.20;;;29.00;91.30;;;31.50;41.30;98186.38;5230866;28;20638;-60
2022/07/22 07:48:24;;;;;;;9.90;9.10;;;29.20;90.60;;;31.99;39.98;98183.53;5230847;28;20223;-60
2022/07/22 07:50:57;;;;;;;10.73;9.75;;;29.20;91.00;;;32.20;38.85;98181.28;5229989;28;20219;-58
2022/07/22 07:53:30;;;;;;;10.05;9.15;;;29.60;90.00;;;31.67;40.20;98172.78;5232942;28;20204;-59
2022/07/22 07:56:04;;;;;;;10.20;9.30;;;29.10;90.20;;;31.75;40.47;98177.00;5230179;28;20489;-61
2022/07/22 07:58:37;;;;;;;9.95;9.15;;;29.10;90.30;;;32.19;39.04;98174.22;5236158;28;20197;-59
2022/07/22 08:01:13;;;;;;;9.48;8.73;;;29.20;90.00;;;32.73;38.32;98171.09;5231171;28;20215;-60
2022/07/22 08:03:46;;;;;;;9.70;8.90;;;29.50;90.00;;;32.72;38.36;98172.88;5227122;28;20220;-60
2022/07/22 08:06:20;;;;;;;9.52;8.82;;;29.90;89.30;;;32.90;38.26;98170.63;5236635;28;20236;-60
2022/07/22 08:08:53;;;;;;;9.10;8.32;;;30.30;88.00;;;33.33;37.64;98178.25;5232294;28;20200;-60
2022/07/22 08:11:27;;;;;;;9.55;8.75;;;30.40;87.60;;;33.82;36.37;98166.16;5231022;28;20220;-60
2022/07/22 08:14:00;;;;;;;8.95;8.25;;;30.30;87.00;;;33.71;36.09;98173.63;5228179;28;20726;-59
2022/07/22 08:16:35;;;;;;;9.20;8.50;;;30.40;87.80;;;33.52;37.08;98168.00;5225449;28;20296;-60
2022/07/22 08:19:10;;;;;;;8.75;7.82;;;30.10;87.50;;;33.16;37.93;98154.88;5229135;28;20204;-59
2022/07/22 08:21:43;;;;;;;8.85;8.15;;;30.30;88.60;;;32.99;38.18;98165.09;5233229;28;20262;-60
2022/07/22 08:24:16;;;;;;;8.77;8.05;;;30.60;86.60;;;32.94;37.99;98167.88;5232865;28;20301;-60
2022/07/22 08:26:50;;;;;;;9.32;8.60;;;30.90;85.20;;;32.80;37.67;98162.09;5227405;28;20301;-60
2022/07/22 08:29:24;;;;;;;9.27;8.57;;;31.00;84.70;;;32.71;39.09;98160.56;5231581;28;20199;-60
2022/07/22 08:31:58;;;;;;;9.05;8.35;;;31.00;85.90;;;32.70;38.75;98166.75;5233461;28;20258;-60
2022/07/22 08:34:32;;;;;;;8.93;8.15;;;31.00;84.70;;;32.81;37.76;98162.94;5233978;28;20196;-60
2022/07/22 08:37:05;;;;;;;8.68;8.07;;;31.00;84.10;;;32.73;37.91;98156.06;5231862;28;20256;-59
2022/07/22 08:39:39;;;;;;;9.00;8.40;;;31.10;83.60;;;32.83;37.17;98161.13;5226484;28;20231;-59
2022/07/22 08:42:13;;;;;;;9.18;8.52;;;31.10;82.30;;;32.58;38.26;98153.84;5234614;28;20220;-60
2022/07/22 08:44:48;;;;;;;8.82;8.13;;;31.00;83.40;;;32.72;38.18;98156.97;5230458;28;20680;-60
2022/07/22 08:47:24;;;;;;;7.72;7.22;;;31.30;82.10;;;32.73;37.42;98150.78;5228551;28;20257;-60
2022/07/22 08:50:14;;;;;;;8.60;7.90;;;31.40;82.00;;;32.33;38.61;98148.28;5234590;28;20212;-60
2022/07/22 08:52:47;;;;;;;7.97;7.38;;;31.30;81.70;;;32.51;38.02;98141.69;5233182;28;20263;-60
2022/07/22 08:55:20;;;;;;;8.82;8.32;;;31.40;80.90;;;32.43;38.04;98138.34;5233401;28;20328;-60
2022/07/22 08:57:53;;;;;;;8.55;7.82;;;31.20;80.40;;;32.56;37.23;98129.19;5229335;28;20262;-60
2022/07/22 09:00:26;;;;;;;8.48;7.88;;;31.30;80.80;;;32.53;36.86;98129.25;5234470;28;20292;-60
2022/07/22 09:03:01;;;;;;;8.23;7.60;;;31.30;79.20;;;32.55;36.77;98122.16;5232904;28;20780;-60
2022/07/22 09:05:35;;;;;;;8.10;7.57;;;31.40;78.10;;;32.23;38.18;98123.84;5235476;28;20558;-58
2022/07/22 09:08:18;;;;;;;8.38;7.68;;;31.00;81.00;;;32.15;38.30;98127.59;5229635;28;20292;-59
2022/07/22 09:10:52;;;;;;;8.57;7.90;;;31.10;80.40;;;32.45;37.77;98121.56;5228311;28;20197;-59
2022/07/22 09:13:25;;;;;;;8.27;7.60;;;31.40;80.00;;;32.70;35.80;98127.03;5230422;28;20281;-60
2022/07/22 09:15:58;;;;;;;7.97;7.35;;;31.50;77.60;;;32.62;37.04;98123.72;5234995;28;20224;-60
2022/07/22 09:18:46;;;;;;;8.20;7.50;;;31.40;78.10;;;32.27;37.23;98117.56;5230223;28;20192;-60
2022/07/22 09:21:21;;;;;;;7.57;6.97;;;31.20;79.10;;;32.39;37.00;98119.00;5233235;28;20209;-60
2022/07/22 09:23:54;;;;;;;8.23;7.53;;;31.10;78.70;;;32.48;36.67;98108.22;5231748;28;20311;-59
2022/07/22 09:26:34;;;;;;;8.05;7.40;;;31.40;77.20;;;31.92;37.40;98110.53;5232497;28;20196;-60
2022/07/22 09:29:07;;;;;;;7.45;6.95;;;31.40;77.60;;;32.23;36.93;98110.63;5229095;28;20212;-60
2022/07/22 09:31:43;;;;;;;7.60;7.00;;;31.30;77.80;;;32.39;36.38;98107.56;5231471;28;20220;-58
2022/07/22 09:34:28;;;;;;;8.32;7.53;;;31.30;77.80;;;32.11;38.06;98099.47;5234473;28;20200;-59
2022/07/22 09:37:02;;;;;;;8.05;7.30;;;31.10;79.20;;;31.97;37.58;98102.50;5231321;28;20201;-58
2022/07/22 09:39:35;;;;;;;8.30;7.70;;;31.00;79.00;;;32.19;38.31;98095.72;5232453;28;22296;-59
2022/07/22 09:42:08;;;;;;;7.93;7.32;;;31.10;80.00;;;32.06;36.51;98097.81;5229448;28;20311;-60
2022/07/22 09:44:42;;;;;;;7.72;7.22;;;30.90;77.60;;;32.07;37.62;98103.97;5233910;28;20251;-60
2022/07/22 09:47:28;;;;;;;8.88;8.18;;;31.10;78.30;;;31.86;39.13;98100.94;5234391;28;20216;-60
2022/07/22 09:50:24;;;;;;;8.20;7.60;;;31.10;80.10;;;32.01;38.47;98101.50;5231500;28;20204;-59
2022/07/22 09:53:00;;;;;;;8.93;8.23;;;31.10;79.00;;;32.22;38.47;98095.66;5234046;28;20216;-60
2022/07/22 09:55:39;;;;;;;7.38;6.88;;;31.10;79.90;;;32.31;37.12;98095.41;5240432;28;20200;-61
2022/07/22 09:58:12;;;;;;;8.65;7.88;;;31.30;77.70;;;32.52;36.64;98101.06;5232845;28;20201;-61
2022/07/22 10:00:47;;;;;;;8.10;7.50;;;31.60;76.40;;;32.55;36.21;98095.69;5237786;28;20239;-59
2022/07/22 10:03:26;;;;;;;8.18;7.57;;;31.70;76.50;;;32.24;36.67;98093.81;5236411;28;20202;-62
2022/07/22 10:06:04;;;;;;;8.80;8.10;;;31.40;76.50;;;31.65;38.11;98088.25;5234996;28;20203;-59
2022/07/22 10:08:38;;;;;;;8.77;7.97;;;30.90;78.20;;;31.70;38.13;98086.34;5234760;28;20654;-61
2022/07/22 10:11:11;;;;;;;8.43;7.75;;;30.80;78.30;;;31.74;38.16;98074.81;5228409;28;20251;-62
2022/07/22 10:13:44;;;;;;;8.30;7.60;;;30.70;78.90;;;32.04;36.85;98080.25;5230351;28;20231;-61
2022/07/22 10:16:17;;;;;;;8.10;7.40;;;31.10;77.00;;;32.01;38.01;98077.69;5237120;28;20224;-61
2022/07/22 10:18:53;;;;;;;8.35;7.75;;;30.90;78.00;;;31.98;37.19;98068.06;5232837;28;20229;-61
2022/07/22 10:21:35;;;;;;;8.10;7.50;;;31.10;77.20;;;31.86;38.14;98070.97;5239917;28;20306;-61
2022/07/22 10:24:12;;;;;;;8.00;7.38;;;31.00;78.00;;;31.76;38.33;98061.53;5229165;28;20301;-61
2022/07/22 10:26:51;;;;;;;8.57;7.88;;;31.00;78.60;;;31.83;39.09;98058.69;5232352;28;20266;-61
2022/07/22 10:29:30;;;;;;;8.30;7.70;;;31.00;79.50;;;32.00;37.84;98063.59;5237622;28;20200;-63
2022/07/22 10:32:28;;;;;;;8.20;7.60;;;31.10;77.70;;;32.02;36.90;98052.97;5235228;28;20624;-62
2022/07/22 10:35:22;;;;;;;8.00;7.40;;;31.20;76.20;;;31.83;38.89;98048.13;5232776;28;20279;-60
2022/07/22 10:38:01;;;;;;;8.07;7.32;;;31.10;79.20;;;31.70;37.94;98046.69;5235074;28;20232;-61
2022/07/22 10:40:49;;;;;;;8.57;7.97;;;30.90;78.00;;;31.78;38.02;98042.09;5231595;28;20220;-61
2022/07/22 10:43:25;;;;;;;8.07;7.45;;;30.90;77.80;;;31.47;37.92;98038.47;5239776;28;20225;-61